sensor_id;sensor_type;location;lat;lon;timestamp;P1;durP1;ratioP1;P2;durP2;ratioP2
8040;SDS011;4063;48.140;10.250;2022-10-31T00:00:12;16.10;;;9.37;;
8040;SDS011;4063;48.140;10.250;2022-10-31T00:02:38;12.33;;;9.37;;
8040;SDS011;4063;48.140;10.250;2022-10-31T00:05:04;14.80;;;9.83;;
8040;SDS011;4063;48.140;10.250;2022-10-31T00:07:30;13.20;;;8.47;;
8040;SDS011;4063;48.140;10.250;2022-10-31T00:09:56;14.67;;;8.83;;
8040;SDS011;4063;48.140;10.250;2022-10-31T00:12:22;15.63;;;9.50;;
8040;SDS011;4063;48.140;10.250;2022-10-31T00:14:48;22.03;;;10.37;;
8040;SDS011;4063;48.140;10.250;2022-10-31T00:17:14;12.97;;;9.13;;
8040;SDS011;4063;48.140;10.250;2022-10-31T00:19:40;12.17;;;9.07;;
8040;SDS011;4063;48.140;10.250;2022-10-31T00:22:06;14.70;;;8.97;;
8040;SDS011;4063;48.140;10.250;2022-10-31T00:24:32;17.37;;;9.57;;
8040;SDS011;4063;48.140;10.250;2022-10-31T00:26:58;13.97;;;9.93;;
8040;SDS011;4063;48.140;10.250;2022-10-31T00:29:24;12.50;;;9.10;;
8040;SDS011;4063;48.140;10.250;2022-10-31T00:31:50;13.93;;;10.03;;
8040;SDS011;4063;48.140;10.250;2022-10-31T00:34:16;11.13;;;9.70;;
8040;SDS011;4063;48.140;10.250;2022-10-31T00:36:42;12.37;;;9.53;;
8040;SDS011;4063;48.140;10.250;2022-10-31T00:39:08;15.70;;;9.40;;
8040;SDS011;4063;48.140;10.250;2022-10-31T00:41:34;14.83;;;9.80;;
8040;SDS011;4063;48.140;10.250;2022-10-31T00:44:00;12.37;;;9.50;;
8040;SDS011;4063;48.140;10.250;2022-10-31T00:46:26;16.00;;;9.63;;
8040;SDS011;4063;48.140;10.250;2022-10-31T00:48:52;16.83;;;9.90;;
8040;SDS011;4063;48.140;10.250;2022-10-31T00:51:18;16.70;;;9.33;;
8040;SDS011;4063;48.140;10.250;2022-10-31T00:53:44;15.87;;;9.37;;
8040;SDS011;4063;48.140;10.250;2022-10-31T00:56:10;19.20;;;10.07;;
8040;SDS011;4063;48.140;10.250;2022-10-31T00:58:36;16.27;;;10.10;;
8040;SDS011;4063;48.140;10.250;2022-10-31T01:01:02;12.67;;;10.03;;
8040;SDS011;4063;48.140;10.250;2022-10-31T01:03:29;18.53;;;10.70;;
8040;SDS011;4063;48.140;10.250;2022-10-31T01:05:56;16.53;;;9.47;;
8040;SDS011;4063;48.140;10.250;2022-10-31T01:08:22;15.07;;;9.27;;
8040;SDS011;4063;48.140;10.250;2022-10-31T01:10:57;11.67;;;10.23;;
8040;SDS011;4063;48.140;10.250;2022-10-31T01:13:23;13.40;;;9.33;;
8040;SDS011;4063;48.140;10.250;2022-10-31T01:15:56;17.67;;;9.53;;
8040;SDS011;4063;48.140;10.250;2022-10-31T01:18:23;17.03;;;10.00;;
8040;SDS011;4063;48.140;10.250;2022-10-31T01:23:44;13.50;;;9.60;;
8040;SDS011;4063;48.140;10.250;2022-10-31T01:26:11;12.57;;;9.00;;
8040;SDS011;4063;48.140;10.250;2022-10-31T01:28:38;16.30;;;10.97;;
8040;SDS011;4063;48.140;10.250;2022-10-31T01:31:06;15.43;;;9.43;;
8040;SDS011;4063;48.140;10.250;2022-10-31T01:33:32;14.73;;;9.70;;
8040;SDS011;4063;48.140;10.250;2022-10-31T01:35:58;17.50;;;10.30;;
8040;SDS011;4063;48.140;10.250;2022-10-31T01:38:24;14.47;;;9.70;;
8040;SDS011;4063;48.140;10.250;2022-10-31T01:40:50;13.20;;;9.60;;
8040;SDS011;4063;48.140;10.250;2022-10-31T01:43:17;16.23;;;9.97;;
8040;SDS011;4063;48.140;10.250;2022-10-31T01:45:43;16.70;;;10.10;;
8040;SDS011;4063;48.140;10.250;2022-10-31T01:48:13;13.77;;;9.97;;
8040;SDS011;4063;48.140;10.250;2022-10-31T01:50:40;13.00;;;10.33;;
8040;SDS011;4063;48.140;10.250;2022-10-31T01:53:07;15.90;;;10.00;;
8040;SDS011;4063;48.140;10.250;2022-10-31T01:55:35;16.97;;;9.37;;
8040;SDS011;4063;48.140;10.250;2022-10-31T01:58:04;13.90;;;9.97;;
8040;SDS011;4063;48.140;10.250;2022-10-31T02:00:32;15.17;;;9.00;;
8040;SDS011;4063;48.140;10.250;2022-10-31T02:02:58;11.43;;;8.93;;
8040;SDS011;4063;48.140;10.250;2022-10-31T02:05:25;13.70;;;8.90;;
8040;SDS011;4063;48.140;10.250;2022-10-31T02:10:35;17.27;;;9.10;;
8040;SDS011;4063;48.140;10.250;2022-10-31T02:13:03;13.63;;;9.03;;
8040;SDS011;4063;48.140;10.250;2022-10-31T02:15:29;15.17;;;8.90;;
8040;SDS011;4063;48.140;10.250;2022-10-31T02:17:56;12.73;;;9.00;;
8040;SDS011;4063;48.140;10.250;2022-10-31T02:20:23;13.67;;;8.33;;
8040;SDS011;4063;48.140;10.250;2022-10-31T02:28:09;13.63;;;9.20;;
8040;SDS011;4063;48.140;10.250;2022-10-31T02:33:35;11.90;;;9.03;;
8040;SDS011;4063;48.140;10.250;2022-10-31T02:36:07;12.47;;;8.23;;
8040;SDS011;4063;48.140;10.250;2022-10-31T02:41:25;21.37;;;10.10;;
8040;SDS011;4063;48.140;10.250;2022-10-31T02:46:25;12.53;;;8.33;;
8040;SDS011;4063;48.140;10.250;2022-10-31T02:48:54;16.30;;;9.33;;
8040;SDS011;4063;48.140;10.250;2022-10-31T02:51:21;15.13;;;8.83;;
8040;SDS011;4063;48.140;10.250;2022-10-31T02:53:47;14.23;;;8.90;;
8040;SDS011;4063;48.140;10.250;2022-10-31T02:56:17;15.23;;;8.63;;
8040;SDS011;4063;48.140;10.250;2022-10-31T02:58:45;13.40;;;8.57;;
8040;SDS011;4063;48.140;10.250;2022-10-31T03:03:52;9.87;;;8.00;;
8040;SDS011;4063;48.140;10.250;2022-10-31T03:08:55;11.37;;;7.83;;
8040;SDS011;4063;48.140;10.250;2022-10-31T03:11:28;12.73;;;8.97;;
8040;SDS011;4063;48.140;10.250;2022-10-31T03:14:30;12.10;;;7.83;;
8040;SDS011;4063;48.140;10.250;2022-10-31T03:16:51;14.13;;;8.10;;
8040;SDS011;4063;48.140;10.250;2022-10-31T03:21:49;11.03;;;7.33;;
8040;SDS011;4063;48.140;10.250;2022-10-31T03:24:17;12.30;;;8.75;;
8040;SDS011;4063;48.140;10.250;2022-10-31T03:26:48;10.40;;;7.30;;
8040;SDS011;4063;48.140;10.250;2022-10-31T03:29:16;12.97;;;7.17;;
8040;SDS011;4063;48.140;10.250;2022-10-31T03:31:44;10.60;;;6.57;;
8040;SDS011;4063;48.140;10.250;2022-10-31T03:34:12;11.07;;;6.77;;
8040;SDS011;4063;48.140;10.250;2022-10-31T03:36:39;9.50;;;6.97;;
8040;SDS011;4063;48.140;10.250;2022-10-31T03:39:05;8.50;;;6.23;;
8040;SDS011;4063;48.140;10.250;2022-10-31T03:41:34;9.53;;;6.90;;
8040;SDS011;4063;48.140;10.250;2022-10-31T03:44:04;7.07;;;6.03;;
8040;SDS011;4063;48.140;10.250;2022-10-31T03:46:32;13.83;;;7.37;;
8040;SDS011;4063;48.140;10.250;2022-10-31T03:48:58;10.93;;;6.70;;
8040;SDS011;4063;48.140;10.250;2022-10-31T03:52:13;9.90;;;7.17;;
8040;SDS011;4063;48.140;10.250;2022-10-31T03:54:18;15.73;;;8.13;;
8040;SDS011;4063;48.140;10.250;2022-10-31T03:56:49;13.13;;;7.43;;
8040;SDS011;4063;48.140;10.250;2022-10-31T03:59:18;11.60;;;7.90;;
8040;SDS011;4063;48.140;10.250;2022-10-31T04:01:47;13.33;;;7.07;;
8040;SDS011;4063;48.140;10.250;2022-10-31T04:04:14;10.90;;;7.60;;
8040;SDS011;4063;48.140;10.250;2022-10-31T04:06:41;14.13;;;8.93;;
8040;SDS011;4063;48.140;10.250;2022-10-31T04:09:08;13.20;;;7.83;;
8040;SDS011;4063;48.140;10.250;2022-10-31T04:11:36;10.37;;;7.87;;
8040;SDS011;4063;48.140;10.250;2022-10-31T04:14:03;16.87;;;8.90;;
8040;SDS011;4063;48.140;10.250;2022-10-31T04:16:30;16.10;;;8.93;;
8040;SDS011;4063;48.140;10.250;2022-10-31T04:18:56;11.33;;;8.93;;
8040;SDS011;4063;48.140;10.250;2022-10-31T04:21:29;12.57;;;8.23;;
8040;SDS011;4063;48.140;10.250;2022-10-31T04:23:55;15.83;;;9.10;;
8040;SDS011;4063;48.140;10.250;2022-10-31T04:26:21;15.80;;;9.03;;
8040;SDS011;4063;48.140;10.250;2022-10-31T04:28:47;13.03;;;9.27;;
8040;SDS011;4063;48.140;10.250;2022-10-31T04:31:13;20.67;;;8.90;;
8040;SDS011;4063;48.140;10.250;2022-10-31T04:33:39;17.50;;;10.53;;
8040;SDS011;4063;48.140;10.250;2022-10-31T04:36:05;14.77;;;10.13;;
8040;SDS011;4063;48.140;10.250;2022-10-31T04:38:32;10.90;;;8.50;;
8040;SDS011;4063;48.140;10.250;2022-10-31T04:40:58;12.30;;;9.57;;
8040;SDS011;4063;48.140;10.250;2022-10-31T04:43:24;15.70;;;9.37;;
8040;SDS011;4063;48.140;10.250;2022-10-31T04:45:50;15.20;;;8.93;;
8040;SDS011;4063;48.140;10.250;2022-10-31T04:48:16;12.63;;;8.37;;
8040;SDS011;4063;48.140;10.250;2022-10-31T04:50:42;11.97;;;8.73;;
8040;SDS011;4063;48.140;10.250;2022-10-31T04:53:08;13.27;;;8.83;;
8040;SDS011;4063;48.140;10.250;2022-10-31T04:55:37;13.60;;;8.63;;
8040;SDS011;4063;48.140;10.250;2022-10-31T04:58:03;16.53;;;8.63;;
8040;SDS011;4063;48.140;10.250;2022-10-31T05:00:29;13.93;;;7.60;;
8040;SDS011;4063;48.140;10.250;2022-10-31T05:02:56;11.20;;;8.37;;
8040;SDS011;4063;48.140;10.250;2022-10-31T05:05:24;16.00;;;8.83;;
8040;SDS011;4063;48.140;10.250;2022-10-31T05:07:50;14.40;;;8.17;;
8040;SDS011;4063;48.140;10.250;2022-10-31T05:10:17;14.57;;;8.47;;
8040;SDS011;4063;48.140;10.250;2022-10-31T05:12:51;16.87;;;8.93;;
8040;SDS011;4063;48.140;10.250;2022-10-31T05:15:19;16.37;;;8.27;;
8040;SDS011;4063;48.140;10.250;2022-10-31T05:17:45;16.90;;;9.00;;
8040;SDS011;4063;48.140;10.250;2022-10-31T05:20:12;16.67;;;8.40;;
8040;SDS011;4063;48.140;10.250;2022-10-31T05:22:41;11.20;;;8.10;;
8040;SDS011;4063;48.140;10.250;2022-10-31T05:25:08;11.60;;;8.07;;
8040;SDS011;4063;48.140;10.250;2022-10-31T05:27:34;15.60;;;9.30;;
8040;SDS011;4063;48.140;10.250;2022-10-31T05:30:00;16.03;;;8.70;;
8040;SDS011;4063;48.140;10.250;2022-10-31T05:32:26;15.20;;;8.13;;
8040;SDS011;4063;48.140;10.250;2022-10-31T05:34:52;12.57;;;7.77;;
8040;SDS011;4063;48.140;10.250;2022-10-31T05:37:18;12.40;;;7.47;;
8040;SDS011;4063;48.140;10.250;2022-10-31T05:39:44;16.33;;;8.20;;
8040;SDS011;4063;48.140;10.250;2022-10-31T05:42:10;12.80;;;7.90;;
8040;SDS011;4063;48.140;10.250;2022-10-31T05:44:36;11.50;;;7.73;;
8040;SDS011;4063;48.140;10.250;2022-10-31T05:47:02;12.13;;;7.53;;
8040;SDS011;4063;48.140;10.250;2022-10-31T05:49:28;12.90;;;7.93;;
8040;SDS011;4063;48.140;10.250;2022-10-31T05:51:53;9.17;;;7.70;;
8040;SDS011;4063;48.140;10.250;2022-10-31T05:54:19;11.83;;;7.00;;
8040;SDS011;4063;48.140;10.250;2022-10-31T05:56:46;11.40;;;7.80;;
8040;SDS011;4063;48.140;10.250;2022-10-31T05:59:12;12.40;;;7.20;;
8040;SDS011;4063;48.140;10.250;2022-10-31T06:01:37;12.20;;;6.93;;
8040;SDS011;4063;48.140;10.250;2022-10-31T06:04:03;8.70;;;7.30;;
8040;SDS011;4063;48.140;10.250;2022-10-31T06:06:29;10.67;;;7.47;;
8040;SDS011;4063;48.140;10.250;2022-10-31T06:08:55;14.87;;;6.80;;
8040;SDS011;4063;48.140;10.250;2022-10-31T06:11:21;9.67;;;6.70;;
8040;SDS011;4063;48.140;10.250;2022-10-31T06:13:47;9.30;;;6.93;;
8040;SDS011;4063;48.140;10.250;2022-10-31T06:16:14;14.93;;;7.60;;
8040;SDS011;4063;48.140;10.250;2022-10-31T06:18:39;12.13;;;7.77;;
8040;SDS011;4063;48.140;10.250;2022-10-31T06:21:05;12.27;;;7.43;;
8040;SDS011;4063;48.140;10.250;2022-10-31T06:23:32;14.27;;;8.00;;
8040;SDS011;4063;48.140;10.250;2022-10-31T06:25:57;13.50;;;8.60;;
8040;SDS011;4063;48.140;10.250;2022-10-31T06:28:23;14.93;;;8.00;;
8040;SDS011;4063;48.140;10.250;2022-10-31T06:30:49;12.43;;;7.67;;
8040;SDS011;4063;48.140;10.250;2022-10-31T06:33:15;11.87;;;7.20;;
8040;SDS011;4063;48.140;10.250;2022-10-31T06:35:45;13.10;;;8.10;;
8040;SDS011;4063;48.140;10.250;2022-10-31T06:38:11;13.77;;;7.90;;
8040;SDS011;4063;48.140;10.250;2022-10-31T06:40:37;12.47;;;7.63;;
8040;SDS011;4063;48.140;10.250;2022-10-31T06:43:03;12.47;;;7.47;;
8040;SDS011;4063;48.140;10.250;2022-10-31T06:45:29;11.07;;;7.73;;
8040;SDS011;4063;48.140;10.250;2022-10-31T06:47:55;10.40;;;7.67;;
8040;SDS011;4063;48.140;10.250;2022-10-31T06:50:22;13.93;;;7.63;;
8040;SDS011;4063;48.140;10.250;2022-10-31T06:52:55;16.80;;;8.30;;
8040;SDS011;4063;48.140;10.250;2022-10-31T06:55:22;10.17;;;7.90;;
8040;SDS011;4063;48.140;10.250;2022-10-31T06:57:52;12.63;;;7.37;;
8040;SDS011;4063;48.140;10.250;2022-10-31T07:00:18;13.47;;;7.37;;
8040;SDS011;4063;48.140;10.250;2022-10-31T07:02:54;10.60;;;7.37;;
8040;SDS011;4063;48.140;10.250;2022-10-31T07:05:20;10.43;;;7.27;;
8040;SDS011;4063;48.140;10.250;2022-10-31T07:07:46;9.57;;;7.50;;
8040;SDS011;4063;48.140;10.250;2022-10-31T07:10:12;12.80;;;7.33;;
8040;SDS011;4063;48.140;10.250;2022-10-31T07:12:38;10.67;;;7.33;;
8040;SDS011;4063;48.140;10.250;2022-10-31T07:15:04;13.30;;;7.00;;
8040;SDS011;4063;48.140;10.250;2022-10-31T07:17:30;11.00;;;7.03;;
8040;SDS011;4063;48.140;10.250;2022-10-31T07:19:56;11.60;;;7.50;;
8040;SDS011;4063;48.140;10.250;2022-10-31T07:22:22;6.83;;;6.03;;
8040;SDS011;4063;48.140;10.250;2022-10-31T07:24:48;10.60;;;6.73;;
8040;SDS011;4063;48.140;10.250;2022-10-31T07:27:14;11.37;;;6.37;;
8040;SDS011;4063;48.140;10.250;2022-10-31T07:29:40;10.17;;;6.10;;
8040;SDS011;4063;48.140;10.250;2022-10-31T07:32:06;9.43;;;6.37;;
8040;SDS011;4063;48.140;10.250;2022-10-31T07:34:32;9.27;;;6.00;;
8040;SDS011;4063;48.140;10.250;2022-10-31T07:36:58;8.47;;;5.60;;
8040;SDS011;4063;48.140;10.250;2022-10-31T07:39:24;9.30;;;5.63;;
8040;SDS011;4063;48.140;10.250;2022-10-31T07:41:50;6.23;;;5.53;;
8040;SDS011;4063;48.140;10.250;2022-10-31T07:44:16;7.13;;;5.50;;
8040;SDS011;4063;48.140;10.250;2022-10-31T07:46:42;12.53;;;5.60;;
8040;SDS011;4063;48.140;10.250;2022-10-31T07:49:08;12.00;;;6.17;;
8040;SDS011;4063;48.140;10.250;2022-10-31T07:51:34;9.23;;;6.00;;
8040;SDS011;4063;48.140;10.250;2022-10-31T07:54:00;10.30;;;6.13;;
8040;SDS011;4063;48.140;10.250;2022-10-31T07:56:26;11.03;;;6.57;;
8040;SDS011;4063;48.140;10.250;2022-10-31T07:58:52;8.87;;;5.20;;
8040;SDS011;4063;48.140;10.250;2022-10-31T08:01:18;7.87;;;5.47;;
8040;SDS011;4063;48.140;10.250;2022-10-31T08:03:44;12.10;;;6.10;;
8040;SDS011;4063;48.140;10.250;2022-10-31T08:06:10;9.33;;;5.80;;
8040;SDS011;4063;48.140;10.250;2022-10-31T08:08:36;12.27;;;6.10;;
8040;SDS011;4063;48.140;10.250;2022-10-31T08:11:02;7.50;;;5.23;;
8040;SDS011;4063;48.140;10.250;2022-10-31T08:13:28;10.90;;;5.80;;
8040;SDS011;4063;48.140;10.250;2022-10-31T08:15:54;11.63;;;5.40;;
8040;SDS011;4063;48.140;10.250;2022-10-31T08:18:20;8.70;;;5.67;;
8040;SDS011;4063;48.140;10.250;2022-10-31T08:20:48;8.70;;;5.60;;
8040;SDS011;4063;48.140;10.250;2022-10-31T08:23:14;10.50;;;5.50;;
8040;SDS011;4063;48.140;10.250;2022-10-31T08:25:41;9.40;;;5.67;;
8040;SDS011;4063;48.140;10.250;2022-10-31T08:28:08;15.93;;;6.32;;
8040;SDS011;4063;48.140;10.250;2022-10-31T08:30:35;11.27;;;5.93;;
8040;SDS011;4063;48.140;10.250;2022-10-31T08:33:05;10.43;;;5.43;;
8040;SDS011;4063;48.140;10.250;2022-10-31T08:35:32;14.00;;;5.43;;
8040;SDS011;4063;48.140;10.250;2022-10-31T08:37:58;9.65;;;5.65;;
8040;SDS011;4063;48.140;10.250;2022-10-31T08:40:25;8.23;;;5.63;;
8040;SDS011;4063;48.140;10.250;2022-10-31T08:43:01;13.45;;;5.82;;
8040;SDS011;4063;48.140;10.250;2022-10-31T08:45:27;11.80;;;5.72;;
8040;SDS011;4063;48.140;10.250;2022-10-31T08:48:00;9.88;;;5.38;;
8040;SDS011;4063;48.140;10.250;2022-10-31T08:50:27;8.40;;;4.90;;
8040;SDS011;4063;48.140;10.250;2022-10-31T08:52:53;8.38;;;5.75;;
8040;SDS011;4063;48.140;10.250;2022-10-31T08:55:19;8.57;;;5.72;;
8040;SDS011;4063;48.140;10.250;2022-10-31T08:57:45;13.77;;;6.20;;
8040;SDS011;4063;48.140;10.250;2022-10-31T09:00:11;10.82;;;5.57;;
8040;SDS011;4063;48.140;10.250;2022-10-31T09:02:37;13.15;;;6.10;;
8040;SDS011;4063;48.140;10.250;2022-10-31T09:05:03;12.40;;;5.80;;
8040;SDS011;4063;48.140;10.250;2022-10-31T09:07:29;13.80;;;5.55;;
8040;SDS011;4063;48.140;10.250;2022-10-31T09:09:55;16.13;;;5.43;;
8040;SDS011;4063;48.140;10.250;2022-10-31T09:12:21;9.82;;;5.32;;
8040;SDS011;4063;48.140;10.250;2022-10-31T09:14:48;10.50;;;5.03;;
8040;SDS011;4063;48.140;10.250;2022-10-31T09:17:15;9.90;;;5.53;;
8040;SDS011;4063;48.140;10.250;2022-10-31T09:19:40;13.48;;;5.10;;
8040;SDS011;4063;48.140;10.250;2022-10-31T09:22:06;9.77;;;5.07;;
8040;SDS011;4063;48.140;10.250;2022-10-31T09:24:32;9.82;;;4.70;;
8040;SDS011;4063;48.140;10.250;2022-10-31T09:26:58;9.13;;;4.97;;
8040;SDS011;4063;48.140;10.250;2022-10-31T09:29:24;12.82;;;5.65;;
8040;SDS011;4063;48.140;10.250;2022-10-31T09:31:50;9.75;;;4.88;;
8040;SDS011;4063;48.140;10.250;2022-10-31T09:34:16;8.23;;;4.93;;
8040;SDS011;4063;48.140;10.250;2022-10-31T09:36:42;8.90;;;5.20;;
8040;SDS011;4063;48.140;10.250;2022-10-31T09:39:09;12.30;;;4.97;;
8040;SDS011;4063;48.140;10.250;2022-10-31T09:46:47;12.20;;;5.30;;
8040;SDS011;4063;48.140;10.250;2022-10-31T09:51:45;11.13;;;4.75;;
8040;SDS011;4063;48.140;10.250;2022-10-31T09:54:27;9.10;;;5.07;;
8040;SDS011;4063;48.140;10.250;2022-10-31T09:56:56;14.20;;;5.13;;
8040;SDS011;4063;48.140;10.250;2022-10-31T09:59:26;10.98;;;5.13;;
8040;SDS011;4063;48.140;10.250;2022-10-31T10:04:34;7.57;;;5.10;;
8040;SDS011;4063;48.140;10.250;2022-10-31T10:07:02;8.55;;;5.63;;
8040;SDS011;4063;48.140;10.250;2022-10-31T10:09:30;16.70;;;6.00;;
8040;SDS011;4063;48.140;10.250;2022-10-31T10:12:16;8.75;;;4.70;;
8040;SDS011;4063;48.140;10.250;2022-10-31T10:14:49;11.10;;;4.63;;
8040;SDS011;4063;48.140;10.250;2022-10-31T10:17:18;12.38;;;4.72;;
8040;SDS011;4063;48.140;10.250;2022-10-31T10:27:17;13.77;;;5.32;;
8040;SDS011;4063;48.140;10.250;2022-10-31T10:32:22;10.35;;;4.88;;
8040;SDS011;4063;48.140;10.250;2022-10-31T10:34:53;12.57;;;4.45;;
8040;SDS011;4063;48.140;10.250;2022-10-31T10:37:32;10.27;;;5.20;;
8040;SDS011;4063;48.140;10.250;2022-10-31T10:40:06;9.13;;;5.13;;
8040;SDS011;4063;48.140;10.250;2022-10-31T10:42:33;10.25;;;5.32;;
8040;SDS011;4063;48.140;10.250;2022-10-31T10:45:26;10.55;;;5.00;;
8040;SDS011;4063;48.140;10.250;2022-10-31T10:48:14;10.85;;;5.07;;
8040;SDS011;4063;48.140;10.250;2022-10-31T10:50:44;15.20;;;5.68;;
8040;SDS011;4063;48.140;10.250;2022-10-31T10:53:16;12.20;;;4.85;;
8040;SDS011;4063;48.140;10.250;2022-10-31T10:56:06;11.55;;;5.80;;
8040;SDS011;4063;48.140;10.250;2022-10-31T10:58:34;12.13;;;5.43;;
8040;SDS011;4063;48.140;10.250;2022-10-31T11:01:08;14.10;;;5.20;;
8040;SDS011;4063;48.140;10.250;2022-10-31T11:03:34;12.32;;;5.93;;
8040;SDS011;4063;48.140;10.250;2022-10-31T11:06:01;8.60;;;5.15;;
8040;SDS011;4063;48.140;10.250;2022-10-31T11:08:34;11.05;;;5.30;;
8040;SDS011;4063;48.140;10.250;2022-10-31T11:13:29;12.50;;;5.75;;
8040;SDS011;4063;48.140;10.250;2022-10-31T11:18:25;14.30;;;5.43;;
8040;SDS011;4063;48.140;10.250;2022-10-31T11:20:52;9.65;;;5.22;;
8040;SDS011;4063;48.140;10.250;2022-10-31T11:23:19;11.65;;;4.80;;
8040;SDS011;4063;48.140;10.250;2022-10-31T11:25:49;10.43;;;4.90;;
8040;SDS011;4063;48.140;10.250;2022-10-31T11:28:16;9.35;;;5.13;;
8040;SDS011;4063;48.140;10.250;2022-10-31T11:30:46;9.60;;;5.43;;
8040;SDS011;4063;48.140;10.250;2022-10-31T11:33:17;9.68;;;5.20;;
8040;SDS011;4063;48.140;10.250;2022-10-31T11:35:44;12.98;;;5.68;;
8040;SDS011;4063;48.140;10.250;2022-10-31T11:38:13;9.93;;;5.05;;
8040;SDS011;4063;48.140;10.250;2022-10-31T11:40:41;12.20;;;5.68;;
8040;SDS011;4063;48.140;10.250;2022-10-31T11:43:17;9.48;;;4.95;;
8040;SDS011;4063;48.140;10.250;2022-10-31T11:45:43;8.02;;;5.00;;
8040;SDS011;4063;48.140;10.250;2022-10-31T11:48:16;8.38;;;5.07;;
8040;SDS011;4063;48.140;10.250;2022-10-31T11:50:47;11.23;;;5.68;;
8040;SDS011;4063;48.140;10.250;2022-10-31T11:53:17;17.73;;;5.70;;
8040;SDS011;4063;48.140;10.250;2022-10-31T11:55:44;10.52;;;5.80;;
8040;SDS011;4063;48.140;10.250;2022-10-31T11:58:20;11.18;;;5.50;;
8040;SDS011;4063;48.140;10.250;2022-10-31T12:00:51;16.33;;;5.88;;
8040;SDS011;4063;48.140;10.250;2022-10-31T12:05:44;12.27;;;5.43;;
8040;SDS011;4063;48.140;10.250;2022-10-31T12:08:11;13.55;;;6.00;;
8040;SDS011;4063;48.140;10.250;2022-10-31T12:11:01;15.30;;;4.88;;
8040;SDS011;4063;48.140;10.250;2022-10-31T12:13:30;7.30;;;5.25;;
8040;SDS011;4063;48.140;10.250;2022-10-31T12:16:18;10.45;;;5.75;;
8040;SDS011;4063;48.140;10.250;2022-10-31T12:21:34;16.08;;;6.25;;
8040;SDS011;4063;48.140;10.250;2022-10-31T12:29:07;12.95;;;5.95;;
8040;SDS011;4063;48.140;10.250;2022-10-31T12:41:46;11.55;;;5.90;;
8040;SDS011;4063;48.140;10.250;2022-10-31T12:47:05;9.35;;;5.15;;
8040;SDS011;4063;48.140;10.250;2022-10-31T12:59:59;8.55;;;5.50;;
8040;SDS011;4063;48.140;10.250;2022-10-31T13:05:14;12.82;;;5.88;;
8040;SDS011;4063;48.140;10.250;2022-10-31T13:07:50;9.73;;;5.97;;
8040;SDS011;4063;48.140;10.250;2022-10-31T13:10:23;12.77;;;6.50;;
8040;SDS011;4063;48.140;10.250;2022-10-31T13:12:51;9.93;;;6.57;;
8040;SDS011;4063;48.140;10.250;2022-10-31T13:15:19;15.15;;;6.95;;
8040;SDS011;4063;48.140;10.250;2022-10-31T13:18:05;10.35;;;6.57;;
8040;SDS011;4063;48.140;10.250;2022-10-31T13:20:38;12.15;;;6.60;;
8040;SDS011;4063;48.140;10.250;2022-10-31T13:23:15;11.60;;;7.18;;
8040;SDS011;4063;48.140;10.250;2022-10-31T13:25:44;12.90;;;6.55;;
8040;SDS011;4063;48.140;10.250;2022-10-31T13:31:00;13.60;;;8.25;;
8040;SDS011;4063;48.140;10.250;2022-10-31T13:33:30;15.18;;;8.30;;
8040;SDS011;4063;48.140;10.250;2022-10-31T13:51:50;12.43;;;7.75;;
8040;SDS011;4063;48.140;10.250;2022-10-31T13:54:23;19.08;;;8.20;;
8040;SDS011;4063;48.140;10.250;2022-10-31T13:56:56;11.82;;;7.57;;
8040;SDS011;4063;48.140;10.250;2022-10-31T13:59:23;10.18;;;7.22;;
8040;SDS011;4063;48.140;10.250;2022-10-31T14:01:54;15.00;;;7.78;;
8040;SDS011;4063;48.140;10.250;2022-10-31T14:04:22;11.02;;;7.35;;
8040;SDS011;4063;48.140;10.250;2022-10-31T14:09:28;12.27;;;7.13;;
8040;SDS011;4063;48.140;10.250;2022-10-31T14:11:55;10.40;;;7.45;;
8040;SDS011;4063;48.140;10.250;2022-10-31T14:14:23;15.13;;;7.55;;
8040;SDS011;4063;48.140;10.250;2022-10-31T14:16:53;15.15;;;7.07;;
8040;SDS011;4063;48.140;10.250;2022-10-31T14:19:20;13.07;;;7.25;;
8040;SDS011;4063;48.140;10.250;2022-10-31T14:21:47;9.35;;;6.30;;
8040;SDS011;4063;48.140;10.250;2022-10-31T14:26:55;11.88;;;6.85;;
8040;SDS011;4063;48.140;10.250;2022-10-31T14:32:05;11.93;;;6.20;;
8040;SDS011;4063;48.140;10.250;2022-10-31T14:34:38;12.32;;;7.28;;
8040;SDS011;4063;48.140;10.250;2022-10-31T14:47:42;12.48;;;5.80;;
8040;SDS011;4063;48.140;10.250;2022-10-31T14:52:37;10.10;;;5.53;;
8040;SDS011;4063;48.140;10.250;2022-10-31T14:55:05;13.32;;;6.45;;
8040;SDS011;4063;48.140;10.250;2022-10-31T14:57:33;13.20;;;5.88;;
8040;SDS011;4063;48.140;10.250;2022-10-31T15:00:05;10.45;;;5.43;;
8040;SDS011;4063;48.140;10.250;2022-10-31T15:02:43;9.25;;;4.70;;
8040;SDS011;4063;48.140;10.250;2022-10-31T15:05:12;11.63;;;5.32;;
8040;SDS011;4063;48.140;10.250;2022-10-31T15:07:55;9.90;;;4.80;;
8040;SDS011;4063;48.140;10.250;2022-10-31T15:10:23;10.50;;;5.55;;
8040;SDS011;4063;48.140;10.250;2022-10-31T15:12:50;14.65;;;4.82;;
8040;SDS011;4063;48.140;10.250;2022-10-31T15:15:25;8.75;;;5.10;;
8040;SDS011;4063;48.140;10.250;2022-10-31T15:17:53;8.50;;;4.97;;
8040;SDS011;4063;48.140;10.250;2022-10-31T15:20:20;13.90;;;5.88;;
8040;SDS011;4063;48.140;10.250;2022-10-31T15:22:48;14.18;;;5.88;;
8040;SDS011;4063;48.140;10.250;2022-10-31T15:25:21;16.92;;;6.50;;
8040;SDS011;4063;48.140;10.250;2022-10-31T15:27:50;13.50;;;6.10;;
8040;SDS011;4063;48.140;10.250;2022-10-31T15:30:18;10.82;;;6.50;;
8040;SDS011;4063;48.140;10.250;2022-10-31T15:32:45;16.05;;;7.32;;
8040;SDS011;4063;48.140;10.250;2022-10-31T15:35:14;13.35;;;7.60;;
8040;SDS011;4063;48.140;10.250;2022-10-31T15:37:45;11.90;;;7.45;;
8040;SDS011;4063;48.140;10.250;2022-10-31T15:40:15;16.30;;;7.53;;
8040;SDS011;4063;48.140;10.250;2022-10-31T15:42:41;14.30;;;8.05;;
8040;SDS011;4063;48.140;10.250;2022-10-31T15:47:38;13.18;;;8.43;;
8040;SDS011;4063;48.140;10.250;2022-10-31T15:50:06;12.55;;;8.45;;
8040;SDS011;4063;48.140;10.250;2022-10-31T15:52:44;14.82;;;9.07;;
8040;SDS011;4063;48.140;10.250;2022-10-31T15:57:44;12.80;;;9.27;;
8040;SDS011;4063;48.140;10.250;2022-10-31T16:05:45;21.45;;;10.90;;
8040;SDS011;4063;48.140;10.250;2022-10-31T16:10:52;23.88;;;11.15;;
8040;SDS011;4063;48.140;10.250;2022-10-31T16:13:19;25.05;;;12.95;;
8040;SDS011;4063;48.140;10.250;2022-10-31T16:15:52;18.35;;;12.10;;
8040;SDS011;4063;48.140;10.250;2022-10-31T16:18:20;21.23;;;12.00;;
8040;SDS011;4063;48.140;10.250;2022-10-31T16:20:50;19.35;;;12.55;;
8040;SDS011;4063;48.140;10.250;2022-10-31T16:23:17;17.88;;;11.50;;
8040;SDS011;4063;48.140;10.250;2022-10-31T16:25:45;16.63;;;10.60;;
8040;SDS011;4063;48.140;10.250;2022-10-31T16:28:24;17.05;;;10.82;;
8040;SDS011;4063;48.140;10.250;2022-10-31T16:30:51;18.83;;;11.75;;
8040;SDS011;4063;48.140;10.250;2022-10-31T16:35:47;14.73;;;10.35;;
8040;SDS011;4063;48.140;10.250;2022-10-31T16:38:13;18.50;;;10.25;;
8040;SDS011;4063;48.140;10.250;2022-10-31T16:40:39;23.38;;;10.88;;
8040;SDS011;4063;48.140;10.250;2022-10-31T16:43:08;14.88;;;10.60;;
8040;SDS011;4063;48.140;10.250;2022-10-31T16:45:34;21.42;;;10.13;;
8040;SDS011;4063;48.140;10.250;2022-10-31T16:48:05;19.98;;;11.65;;
8040;SDS011;4063;48.140;10.250;2022-10-31T16:50:31;17.35;;;11.25;;
8040;SDS011;4063;48.140;10.250;2022-10-31T16:52:57;18.25;;;12.75;;
8040;SDS011;4063;48.140;10.250;2022-10-31T16:55:23;15.60;;;11.13;;
8040;SDS011;4063;48.140;10.250;2022-10-31T16:57:50;27.00;;;16.00;;
8040;SDS011;4063;48.140;10.250;2022-10-31T17:00:18;28.80;;;20.00;;
8040;SDS011;4063;48.140;10.250;2022-10-31T17:02:45;24.17;;;15.50;;
8040;SDS011;4063;48.140;10.250;2022-10-31T17:05:13;24.15;;;15.68;;
8040;SDS011;4063;48.140;10.250;2022-10-31T17:07:42;22.42;;;17.20;;
8040;SDS011;4063;48.140;10.250;2022-10-31T17:10:09;25.92;;;19.40;;
8040;SDS011;4063;48.140;10.250;2022-10-31T17:12:36;27.83;;;18.17;;
8040;SDS011;4063;48.140;10.250;2022-10-31T17:15:03;29.95;;;18.50;;
8040;SDS011;4063;48.140;10.250;2022-10-31T17:17:30;20.55;;;15.90;;